Time;durP1;ratioP1;P1;durP2;ratioP2;P2;SDS_P1;SDS_P2;PMS_P1;PMS_P2;Temp;Humidity;BMP_temperature;BMP_pressure;BME280_temperature;BME280_humidity;BME280_pressure;Samples;Min_cycle;Max_cycle;Signal;HPM_P1;HPM_P2
2022/09/16 00:02:15;;;;;;;;;;;12.60;99.90;;;;;;5094705;28;20342;-63
2022/09/16 00:04:41;;;;;;;;;;;12.60;99.90;;;;;;5095019;28;19912;-63
2022/09/16 00:07:06;;;;;;;;;;;12.60;99.90;;;;;;5094706;28;19915;-63
2022/09/16 00:09:31;;;;;;;;;;;12.60;99.90;;;;;;5094620;28;19919;-63
2022/09/16 00:11:57;;;;;;;;;;;12.60;99.90;;;;;;5094827;28;19919;-63
2022/09/16 00:14:22;;;;;;;;;;;12.60;99.90;;;;;;5094549;28;19908;-63
2022/09/16 00:16:48;;;;;;;;;;;12.60;99.90;;;;;;5094536;28;19915;-63
2022/09/16 00:19:14;;;;;;;;;;;12.60;99.90;;;;;;5094720;28;19908;-63
2022/09/16 00:21:39;;;;;;;;;;;12.70;99.90;;;;;;5094669;28;19954;-63
2022/09/16 00:24:05;;;;;;;;;;;12.70;99.90;;;;;;5094394;28;19970;-63
2022/09/16 00:26:30;;;;;;;;;;;12.70;99.90;;;;;;5094328;28;19977;-64
2022/09/16 00:28:56;;;;;;;;;;;12.60;99.90;;;;;;5076200;28;19911;-63
2022/09/16 00:31:21;;;;;;;;;;;12.60;99.90;;;;;;5094193;28;20363;-63
2022/09/16 00:33:47;;;;;;;;;;;12.60;99.90;;;;;;5094526;28;19931;-63
2022/09/16 00:36:15;;;;;;;;;;;12.60;99.90;;;;;;5076313;28;19996;-63
2022/09/16 00:38:41;;;;;;;;;;;12.50;99.90;;;;;;5094318;28;19908;-63
2022/09/16 00:41:07;;;;;;;;;;;12.50;99.90;;;;;;5094144;28;19915;-63
2022/09/16 00:43:52;;;;;;;;;;;12.40;99.90;;;;;;5094333;28;19908;-63
2022/09/16 00:46:21;;;;;;;;;;;12.40;99.90;;;;;;5093892;28;19994;-63
2022/09/16 00:48:47;;;;;;;;;;;12.40;99.90;;;;;;5094262;28;19908;-63
2022/09/16 00:51:13;;;;;;;;;;;12.40;99.90;;;;;;5094113;28;19919;-63
2022/09/16 00:53:41;;;;;;;;;;;12.40;99.90;;;;;;5093896;28;19908;-63
2022/09/16 00:56:08;;;;;;;;;;;12.40;99.90;;;;;;5094197;28;20362;-63
2022/09/16 00:58:43;;;;;;;;;;;12.40;99.90;;;;;;5093894;28;19998;-63
2022/09/16 01:01:09;;;;;;;;;;;12.40;99.90;;;;;;5093840;28;19908;-63
2022/09/16 01:03:38;;;;;;;;;;;12.30;99.90;;;;;;5094051;28;19966;-63
2022/09/16 01:06:05;;;;;;;;;;;12.30;99.90;;;;;;5093904;28;20362;-63
2022/09/16 01:08:30;;;;;;;;;;;12.30;99.90;;;;;;5094014;28;20374;-62
2022/09/16 01:10:56;;;;;;;;;;;12.30;99.90;;;;;;5093504;28;19927;-63
2022/09/16 01:13:21;;;;;;;;;;;12.30;99.90;;;;;;5093992;28;19912;-63
2022/09/16 01:15:53;;;;;;;;;;;12.30;99.90;;;;;;5093961;28;20370;-64
2022/09/16 01:18:39;;;;;;;;;;;12.30;99.90;;;;;;5093936;28;19908;-63
2022/09/16 01:21:15;;;;;;;;;;;12.20;99.90;;;;;;5093474;28;19908;-63
2022/09/16 01:24:02;;;;;;;;;;;12.30;99.90;;;;;;5093875;28;19954;-63
2022/09/16 01:26:48;;;;;;;;;;;12.30;99.90;;;;;;5093701;28;20292;-63
2022/09/16 01:29:23;;;;;;;;;;;12.20;99.90;;;;;;5093397;28;19908;-63
2022/09/16 01:31:53;;;;;;;;;;;12.30;99.90;;;;;;5093729;28;19916;-63
2022/09/16 01:34:39;;;;;;;;;;;12.30;99.90;;;;;;5093565;28;19912;-63
2022/09/16 01:39:48;;;;;;;;;;;12.30;99.90;;;;;;5071006;28;20375;-63
2022/09/16 01:42:33;;;;;;;;;;;12.30;99.90;;;;;;5071235;28;20390;-63
2022/09/16 01:45:03;;;;;;;;;;;12.30;99.90;;;;;;5070904;28;20303;-63
2022/09/16 01:47:35;;;;;;;;;;;12.30;99.90;;;;;;5071115;28;19916;-63
2022/09/16 01:50:20;;;;;;;;;;;12.30;99.90;;;;;;5071286;28;19955;-64
2022/09/16 01:52:58;;;;;;;;;;;12.30;99.90;;;;;;5070702;28;20359;-63
2022/09/16 01:55:27;;;;;;;;;;;12.30;99.90;;;;;;5070786;28;19963;-63
2022/09/16 01:57:58;;;;;;;;;;;12.30;99.90;;;;;;5070805;28;19956;-64
2022/09/16 02:00:24;;;;;;;;;;;12.30;99.90;;;;;;5070843;28;20367;-64
2022/09/16 02:05:53;;;;;;;;;;;12.30;99.90;;;;;;5091256;28;19912;-63
2022/09/16 02:08:25;;;;;;;;;;;12.30;99.90;;;;;;5091397;28;19913;-62
2022/09/16 02:10:52;;;;;;;;;;;12.30;99.90;;;;;;5091339;28;20332;-62
2022/09/16 02:13:22;;;;;;;;;;;12.30;99.90;;;;;;5091288;28;20003;-63
2022/09/16 02:15:50;;;;;;;;;;;12.30;99.90;;;;;;5091267;28;19908;-63
2022/09/16 02:18:18;;;;;;;;;;;12.20;99.90;;;;;;5091198;28;20278;-63
2022/09/16 02:20:45;;;;;;;;;;;12.20;99.90;;;;;;5091189;28;20370;-63
2022/09/16 02:23:14;;;;;;;;;;;12.20;99.90;;;;;;5091043;28;19932;-62
2022/09/16 02:25:40;;;;;;;;;;;12.30;99.90;;;;;;5091183;28;19915;-63
2022/09/16 02:28:11;;;;;;;;;;;12.20;99.90;;;;;;5090802;28;20010;-63
2022/09/16 02:30:38;;;;;;;;;;;12.20;99.90;;;;;;5090987;28;19981;-63
2022/09/16 02:33:06;;;;;;;;;;;12.20;99.90;;;;;;5090922;28;19930;-63
2022/09/16 02:35:33;;;;;;;;;;;12.20;99.90;;;;;;5090636;28;20396;-63
2022/09/16 02:38:02;;;;;;;;;;;12.20;99.90;;;;;;5089356;28;19916;-63
2022/09/16 02:40:32;;;;;;;;;;;12.20;99.90;;;;;;5090669;28;19908;-63
2022/09/16 02:42:58;;;;;;;;;;;12.20;99.90;;;;;;5090773;28;20446;-63
2022/09/16 02:45:40;;;;;;;;;;;12.20;99.90;;;;;;5090373;28;19986;-63
2022/09/16 02:48:11;;;;;;;;;;;12.20;99.90;;;;;;5090666;28;20278;-63
2022/09/16 02:50:40;;;;;;;;;;;12.10;99.90;;;;;;5090589;28;19912;-62
2022/09/16 02:53:22;;;;;;;;;;;12.20;99.90;;;;;;5090621;28;20358;-62
2022/09/16 02:55:52;;;;;;;;;;;12.20;99.90;;;;;;5090229;28;19912;-63
2022/09/16 02:58:17;;;;;;;;;;;12.10;99.90;;;;;;5090445;28;20401;-63
2022/09/16 03:00:45;;;;;;;;;;;12.10;99.90;;;;;;5090132;28;19998;-63
2022/09/16 03:03:11;;;;;;;;;;;12.10;99.90;;;;;;5089822;28;19908;-63
2022/09/16 03:05:56;;;;;;;;;;;12.10;99.90;;;;;;5090268;28;19959;-63
2022/09/16 03:08:22;;;;;;;;;;;12.10;99.90;;;;;;5089987;28;19909;-63
2022/09/16 03:10:47;;;;;;;;;;;12.10;99.90;;;;;;5089941;28;19938;-63
2022/09/16 03:13:20;;;;;;;;;;;12.10;99.90;;;;;;5090184;28;20002;-62
2022/09/16 03:15:52;;;;;;;;;;;12.10;99.90;;;;;;5083207;28;19958;-63
2022/09/16 03:18:24;;;;;;;;;;;12.10;99.90;;;;;;5075061;28;19953;-63
2022/09/16 03:20:54;;;;;;;;;;;12.10;99.90;;;;;;5076525;28;19916;-63
2022/09/16 03:23:27;;;;;;;;;;;12.10;99.90;;;;;;5076414;28;19939;-63
2022/09/16 03:25:59;;;;;;;;;;;12.00;99.90;;;;;;5076148;28;19908;-63
2022/09/16 03:28:33;;;;;;;;;;;12.10;99.90;;;;;;5076411;28;19908;-63
2022/09/16 03:31:05;;;;;;;;;;;12.10;99.90;;;;;;5074906;28;20050;-63
2022/09/16 03:33:35;;;;;;;;;;;12.10;99.90;;;;;;5076318;28;19908;-63
2022/09/16 03:36:02;;;;;;;;;;;12.10;99.90;;;;;;5076270;28;19909;-63
2022/09/16 03:38:28;;;;;;;;;;;12.10;99.90;;;;;;5076197;28;19916;-63
2022/09/16 03:40:54;;;;;;;;;;;12.10;99.90;;;;;;5076188;28;20366;-63
2022/09/16 03:43:19;;;;;;;;;;;12.10;99.90;;;;;;5075793;28;19909;-63
2022/09/16 03:45:45;;;;;;;;;;;12.10;99.90;;;;;;5075864;28;19915;-63
2022/09/16 03:48:11;;;;;;;;;;;12.10;99.90;;;;;;5076018;28;19962;-63
2022/09/16 03:50:37;;;;;;;;;;;12.10;99.90;;;;;;5075720;28;19912;-63
2022/09/16 03:53:02;;;;;;;;;;;12.10;99.90;;;;;;5075976;28;19908;-63
2022/09/16 03:55:28;;;;;;;;;;;12.10;99.90;;;;;;5075669;28;20426;-63
2022/09/16 03:57:54;;;;;;;;;;;12.10;99.90;;;;;;5075574;28;19912;-63
2022/09/16 04:00:19;;;;;;;;;;;12.10;99.90;;;;;;5075807;28;19959;-63
2022/09/16 04:02:45;;;;;;;;;;;12.10;99.90;;;;;;5075516;28;20444;-63
2022/09/16 04:05:10;;;;;;;;;;;12.20;99.90;;;;;;5075239;28;19920;-63
2022/09/16 04:07:36;;;;;;;;;;;12.10;99.90;;;;;;5075476;28;20429;-63
2022/09/16 04:10:02;;;;;;;;;;;12.20;99.90;;;;;;5074092;28;19908;-63
2022/09/16 04:12:28;;;;;;;;;;;12.20;99.90;;;;;;5075597;28;19909;-62
2022/09/16 04:14:53;;;;;;;;;;;12.10;99.90;;;;;;5075515;28;19915;-62
2022/09/16 04:17:19;;;;;;;;;;;12.20;99.90;;;;;;5075186;28;19908;-63
2022/09/16 04:19:44;;;;;;;;;;;12.20;99.90;;;;;;5075215;28;20404;-63
2022/09/16 04:22:10;;;;;;;;;;;12.10;99.90;;;;;;5075089;28;19908;-63
2022/09/16 04:24:36;;;;;;;;;;;12.10;99.90;;;;;;5074996;28;19913;-63
2022/09/16 04:27:01;;;;;;;;;;;12.10;99.90;;;;;;5074428;28;19940;-62
2022/09/16 04:29:27;;;;;;;;;;;12.00;99.90;;;;;;5074925;28;19912;-63
2022/09/16 04:31:52;;;;;;;;;;;12.00;99.90;;;;;;5075161;28;19916;-63
2022/09/16 04:34:18;;;;;;;;;;;12.10;99.90;;;;;;5074794;28;19909;-63
2022/09/16 04:36:43;;;;;;;;;;;12.10;99.90;;;;;;5073604;28;20282;-63
2022/09/16 04:39:09;;;;;;;;;;;12.10;99.90;;;;;;5075026;28;19997;-63
2022/09/16 04:41:34;;;;;;;;;;;12.00;99.90;;;;;;5074716;28;19915;-64
2022/09/16 04:44:00;;;;;;;;;;;12.00;99.90;;;;;;5073796;28;19912;-63
2022/09/16 04:46:26;;;;;;;;;;;12.00;99.90;;;;;;5074893;28;20363;-62
2022/09/16 04:48:53;;;;;;;;;;;12.10;99.90;;;;;;5074627;28;19908;-62
2022/09/16 04:51:19;;;;;;;;;;;12.10;99.90;;;;;;5074729;28;19908;-62
2022/09/16 04:53:45;;;;;;;;;;;12.10;99.90;;;;;;5074410;28;20298;-62
2022/09/16 04:56:14;;;;;;;;;;;12.10;99.90;;;;;;5074703;28;19909;-63
2022/09/16 04:58:41;;;;;;;;;;;12.00;99.90;;;;;;5074628;28;20418;-63
2022/09/16 05:01:11;;;;;;;;;;;12.00;99.90;;;;;;5074587;28;19913;-62
2022/09/16 05:03:41;;;;;;;;;;;12.00;99.90;;;;;;5074207;28;19921;-62
2022/09/16 05:06:08;;;;;;;;;;;12.00;99.90;;;;;;5074529;28;19912;-62
2022/09/16 05:08:34;;;;;;;;;;;12.00;99.90;;;;;;5074448;28;19909;-64
2022/09/16 05:11:04;;;;;;;;;;;12.00;99.90;;;;;;5074182;28;20346;-62
2022/09/16 05:13:29;;;;;;;;;;;12.00;99.90;;;;;;5074397;28;19909;-62
2022/09/16 05:15:55;;;;;;;;;;;12.10;99.90;;;;;;5074079;28;20398;-62
2022/09/16 05:18:20;;;;;;;;;;;12.00;99.90;;;;;;5074274;28;19973;-62
2022/09/16 05:20:46;;;;;;;;;;;12.00;99.90;;;;;;5074236;28;20422;-62
2022/09/16 05:23:12;;;;;;;;;;;12.00;99.90;;;;;;5074183;28;20375;-63
2022/09/16 05:25:37;;;;;;;;;;;12.10;99.90;;;;;;5073843;28;19919;-64
2022/09/16 05:28:03;;;;;;;;;;;12.10;99.90;;;;;;5074180;28;19939;-63
2022/09/16 05:30:28;;;;;;;;;;;12.10;99.90;;;;;;5073830;28;19908;-64
2022/09/16 05:32:54;;;;;;;;;;;12.20;99.90;;;;;;5074092;28;20279;-63
2022/09/16 05:35:19;;;;;;;;;;;12.20;99.90;;;;;;5074012;28;19909;-64
2022/09/16 05:37:45;;;;;;;;;;;12.30;99.90;;;;;;5074001;28;19908;-64
2022/09/16 05:40:10;;;;;;;;;;;12.30;99.90;;;;;;5073748;28;19909;-65
2022/09/16 05:42:35;;;;;;;;;;;12.40;99.90;;;;;;5073770;28;20022;-64
2022/09/16 05:45:01;;;;;;;;;;;12.40;99.90;;;;;;5073870;28;19912;-63
2022/09/16 05:47:26;;;;;;;;;;;12.50;99.90;;;;;;5073908;28;19959;-64
2022/09/16 05:49:53;;;;;;;;;;;12.50;99.90;;;;;;5073588;28;19909;-64
2022/09/16 05:52:19;;;;;;;;;;;12.50;99.90;;;;;;5073884;28;20452;-63
2022/09/16 05:54:44;;;;;;;;;;;12.40;99.90;;;;;;5073193;28;19908;-65
2022/09/16 05:57:10;;;;;;;;;;;12.40;99.90;;;;;;5065819;28;19916;-64
2022/09/16 05:59:35;;;;;;;;;;;12.30;99.90;;;;;;5053488;28;19966;-64
2022/09/16 06:02:01;;;;;;;;;;;12.20;99.90;;;;;;5056469;28;19909;-64
2022/09/16 06:04:26;;;;;;;;;;;12.10;99.90;;;;;;5053837;28;19925;-64
2022/09/16 06:06:51;;;;;;;;;;;12.10;99.90;;;;;;5056660;28;19915;-63
2022/09/16 06:09:19;;;;;;;;;;;12.10;99.90;;;;;;5057263;28;19913;-64
2022/09/16 06:11:46;;;;;;;;;;;12.10;99.90;;;;;;5054482;28;19948;-63
2022/09/16 06:14:13;;;;;;;;;;;12.10;99.90;;;;;;5069513;28;19962;-63
2022/09/16 06:16:38;;;;;;;;;;;12.20;99.90;;;;;;5073114;28;19908;-63
2022/09/16 06:19:05;;;;;;;;;;;12.30;99.90;;;;;;5064553;28;20322;-63
2022/09/16 06:21:31;;;;;;;;;;;12.40;99.90;;;;;;5061494;28;19912;-62
2022/09/16 06:23:57;;;;;;;;;;;12.40;99.90;;;;;;5055320;28;19925;-63
2022/09/16 06:26:23;;;;;;;;;;;12.40;99.90;;;;;;5073234;28;19916;-63
2022/09/16 06:28:49;;;;;;;;;;;12.40;99.90;;;;;;5073352;28;20382;-63
2022/09/16 06:31:16;;;;;;;;;;;12.40;99.90;;;;;;5073217;28;19956;-62
2022/09/16 06:33:42;;;;;;;;;;;12.30;99.90;;;;;;5065605;28;20029;-63
2022/09/16 06:36:10;;;;;;;;;;;12.30;99.90;;;;;;5071420;28;20054;-63
2022/09/16 06:38:35;;;;;;;;;;;12.40;99.90;;;;;;5063717;28;20379;-62
2022/09/16 06:41:02;;;;;;;;;;;12.30;99.90;;;;;;5068610;28;19912;-64
2022/09/16 06:43:28;;;;;;;;;;;12.40;99.90;;;;;;5052684;28;19913;-63
2022/09/16 06:45:56;;;;;;;;;;;12.50;99.90;;;;;;5056561;28;19909;-63
2022/09/16 06:48:21;;;;;;;;;;;12.70;99.90;;;;;;5053639;28;19931;-63
2022/09/16 06:50:47;;;;;;;;;;;12.80;99.90;;;;;;5056878;28;19916;-63
2022/09/16 06:53:12;;;;;;;;;;;12.70;99.90;;;;;;5069951;28;19915;-63
2022/09/16 06:55:38;;;;;;;;;;;12.60;99.90;;;;;;5074183;28;19908;-63
2022/09/16 06:58:03;;;;;;;;;;;12.50;99.90;;;;;;5056708;28;19909;-63
2022/09/16 07:00:29;;;;;;;;;;;12.60;99.90;;;;;;5056875;28;19912;-63
2022/09/16 07:02:54;;;;;;;;;;;12.80;99.90;;;;;;5058315;28;19951;-62
2022/09/16 07:05:20;;;;;;;;;;;13.00;99.90;;;;;;5066545;28;19928;-63
2022/09/16 07:07:45;;;;;;;;;;;12.90;99.90;;;;;;5058171;28;19913;-62
2022/09/16 07:10:11;;;;;;;;;;;13.00;99.90;;;;;;5059256;28;19921;-63
2022/09/16 07:12:36;;;;;;;;;;;12.90;99.90;;;;;;5059317;28;19917;-64
2022/09/16 07:15:02;;;;;;;;;;;12.80;99.90;;;;;;5066983;28;19916;-63
2022/09/16 07:17:28;;;;;;;;;;;13.30;99.90;;;;;;5061048;28;19924;-63
2022/09/16 07:19:54;;;;;;;;;;;14.30;99.90;;;;;;5070309;28;19912;-64
2022/09/16 07:22:19;;;;;;;;;;;14.50;99.90;;;;;;5057829;28;19920;-65
2022/09/16 07:24:45;;;;;;;;;;;14.50;99.90;;;;;;5056242;28;19967;-63
2022/09/16 07:27:10;;;;;;;;;;;14.50;99.90;;;;;;5062569;28;19966;-63
2022/09/16 07:29:36;;;;;;;;;;;14.10;99.90;;;;;;5068328;28;19962;-63
2022/09/16 07:32:01;;;;;;;;;;;13.80;99.90;;;;;;5072358;28;20003;-63
2022/09/16 07:34:27;;;;;;;;;;;13.60;99.90;;;;;;5058609;28;20374;-65
2022/09/16 07:36:52;;;;;;;;;;;13.30;99.90;;;;;;5060913;28;19920;-67
2022/09/16 07:39:19;;;;;;;;;;;13.10;99.90;;;;;;5066405;28;20355;-66
2022/09/16 07:41:45;;;;;;;;;;;13.30;99.90;;;;;;5082246;28;19916;-67
2022/09/16 07:44:12;;;;;;;;;;;13.40;99.90;;;;;;5057719;28;19913;-66
2022/09/16 07:46:37;;;;;;;;;;;13.40;99.90;;;;;;5074268;28;20362;-66
2022/09/16 07:49:04;;;;;;;;;;;13.40;99.90;;;;;;5061095;28;19961;-67
2022/09/16 07:51:30;;;;;;;;;;;13.40;99.90;;;;;;5075844;28;20367;-67
2022/09/16 07:53:58;;;;;;;;;;;13.40;99.90;;;;;;5072981;28;19958;-66
2022/09/16 07:56:24;;;;;;;;;;;13.50;99.90;;;;;;5072296;28;19999;-67
2022/09/16 07:58:50;;;;;;;;;;;13.70;99.90;;;;;;5069435;28;20359;-66
2022/09/16 08:01:16;;;;;;;;;;;14.10;99.90;;;;;;5066732;28;19966;-66
2022/09/16 08:03:43;;;;;;;;;;;14.40;99.90;;;;;;5055360;28;20353;-67
2022/09/16 08:06:10;;;;;;;;;;;15.00;99.90;;;;;;5059415;28;19994;-67
2022/09/16 08:08:36;;;;;;;;;;;16.00;99.90;;;;;;5068716;28;19915;-67
2022/09/16 08:11:02;;;;;;;;;;;16.40;99.90;;;;;;5059918;28;19913;-67
2022/09/16 08:13:28;;;;;;;;;;;17.10;99.90;;;;;;5056223;28;19917;-66
2022/09/16 08:15:54;;;;;;;;;;;17.20;99.90;;;;;;5065950;28;20286;-67
2022/09/16 08:18:20;;;;;;;;;;;17.70;99.90;;;;;;5059291;28;19963;-67
2022/09/16 08:20:45;;;;;;;;;;;17.70;99.90;;;;;;5057512;28;19913;-67
2022/09/16 08:23:13;;;;;;;;;;;17.90;99.90;;;;;;5057439;28;19917;-67
2022/09/16 08:25:39;;;;;;;;;;;18.20;99.90;;;;;;5056368;28;19920;-67
2022/09/16 08:28:04;;;;;;;;;;;17.90;99.90;;;;;;5062267;28;20367;-66
2022/09/16 08:30:30;;;;;;;;;;;17.80;99.90;;;;;;5062911;28;19938;-67
2022/09/16 08:32:56;;;;;;;;;;;18.30;99.90;;;;;;5060681;28;19919;-66
2022/09/16 08:35:21;;;;;;;;;;;18.20;99.90;;;;;;5057597;28;19916;-66
2022/09/16 08:37:47;;;;;;;;;;;18.00;99.90;;;;;;5059316;28;20015;-66
2022/09/16 08:40:14;;;;;;;;;;;18.10;99.90;;;;;;5062512;28;20395;-66
2022/09/16 08:42:59;;;;;;;;;;;18.20;99.90;;;;;;5070704;28;20030;-66
2022/09/16 08:45:45;;;;;;;;;;;18.40;99.90;;;;;;5054556;28;19920;-66
2022/09/16 08:48:30;;;;;;;;;;;18.50;99.90;;;;;;5054307;28;19913;-67
2022/09/16 08:50:57;;;;;;;;;;;18.40;99.90;;;;;;5062017;28;19959;-66
2022/09/16 08:53:31;;;;;;;;;;;17.80;99.90;;;;;;5065202;28;20323;-66
2022/09/16 08:55:57;;;;;;;;;;;17.70;99.90;;;;;;5072862;28;19908;-67
2022/09/16 08:58:24;;;;;;;;;;;18.30;99.90;;;;;;5073315;28;19916;-66
2022/09/16 09:01:09;;;;;;;;;;;19.30;99.90;;;;;;5057598;28;20472;-66
2022/09/16 09:03:37;;;;;;;;;;;18.90;99.90;;;;;;5054321;28;20387;-66
2022/09/16 09:06:05;;;;;;;;;;;18.20;99.90;;;;;;5055808;28;20421;-66
2022/09/16 09:08:38;;;;;;;;;;;18.40;99.90;;;;;;5062136;28;19921;-66
2022/09/16 09:11:12;;;;;;;;;;;19.10;99.90;;;;;;5053781;28;19909;-67
2022/09/16 09:13:47;;;;;;;;;;;19.30;99.90;;;;;;5061083;28;19923;-67
2022/09/16 09:16:19;;;;;;;;;;;19.10;99.90;;;;;;5066969;28;19909;-67
2022/09/16 09:18:52;;;;;;;;;;;19.90;99.90;;;;;;5057295;28;19923;-67
2022/09/16 09:21:23;;;;;;;;;;;19.90;99.90;;;;;;5055013;28;19920;-67
2022/09/16 09:26:45;;;;;;;;;;;19.60;99.90;;;;;;5052207;28;20388;-66
2022/09/16 09:32:12;;;;;;;;;;;20.20;99.90;;;;;;5068136;28;19917;-67
2022/09/16 09:34:54;;;;;;;;;;;20.20;99.90;;;;;;5055899;28;20349;-66
2022/09/16 09:37:34;;;;;;;;;;;20.50;99.90;;;;;;5052619;28;19960;-67
2022/09/16 09:40:10;;;;;;;;;;;19.70;99.90;;;;;;5054356;28;19912;-67
2022/09/16 09:42:38;;;;;;;;;;;19.50;99.90;;;;;;5057642;28;19963;-66
2022/09/16 09:45:15;;;;;;;;;;;20.50;99.90;;;;;;5080065;28;20011;-66
2022/09/16 09:47:46;;;;;;;;;;;19.70;99.90;;;;;;5039009;28;19927;-66
2022/09/16 09:50:17;;;;;;;;;;;19.60;99.90;;;;;;5047118;28;19966;-66
2022/09/16 09:52:47;;;;;;;;;;;18.70;99.90;;;;;;5050026;28;19956;-66
2022/09/16 09:55:14;;;;;;;;;;;17.60;99.90;;;;;;5056063;28;20359;-65
2022/09/16 09:57:45;;;;;;;;;;;17.00;99.90;;;;;;5029896;28;19928;-65
2022/09/16 10:00:15;;;;;;;;;;;17.00;99.90;;;;;;5062443;28;19920;-66
2022/09/16 10:02:42;;;;;;;;;;;18.50;99.90;;;;;;5049323;28;19913;-65
2022/09/16 10:05:17;;;;;;;;;;;18.60;99.90;;;;;;5065427;28;19920;-66
2022/09/16 10:07:43;;;;;;;;;;;18.20;99.90;;;;;;5065065;28;20040;-66
2022/09/16 10:10:18;;;;;;;;;;;17.90;99.90;;;;;;5049512;28;20350;-67
2022/09/16 10:12:43;;;;;;;;;;;18.50;99.90;;;;;;5048267;28;19913;-66
2022/09/16 10:15:26;;;;;;;;;;;19.60;99.90;;;;;;5047181;28;19913;-66
2022/09/16 10:17:53;;;;;;;;;;;19.90;99.90;;;;;;5049957;28;19913;-66
2022/09/16 10:20:34;;;;;;;;;;;20.40;99.60;;;;;;5044321;28;20416;-65
2022/09/16 10:23:01;;;;;;;;;;;19.60;99.90;;;;;;5041929;28;19913;-66
2022/09/16 10:25:29;;;;;;;;;;;19.10;99.70;;;;;;5044493;28;19913;-67
2022/09/16 10:27:58;;;;;;;;;;;19.30;99.90;;;;;;5046106;28;19913;-67
2022/09/16 10:30:25;;;;;;;;;;;19.30;99.90;;;;;;5044143;28;19921;-66
2022/09/16 10:33:00;;;;;;;;;;;19.70;99.90;;;;;;5041609;28;20446;-66
2022/09/16 10:35:28;;;;;;;;;;;20.30;99.00;;;;;;5048987;28;19917;-66
2022/09/16 10:37:56;;;;;;;;;;;19.70;98.20;;;;;;5046665;28;19928;-66
2022/09/16 10:40:22;;;;;;;;;;;18.60;99.90;;;;;;5048653;28;19917;-66
2022/09/16 10:42:50;;;;;;;;;;;17.90;99.90;;;;;;5035934;28;20274;-66
2022/09/16 10:45:21;;;;;;;;;;;17.80;99.90;;;;;;5034897;28;19913;-67
2022/09/16 10:47:48;;;;;;;;;;;17.50;99.90;;;;;;5051482;28;19913;-67
2022/09/16 10:50:15;;;;;;;;;;;17.50;99.90;;;;;;5036690;28;20291;-66
2022/09/16 10:52:42;;;;;;;;;;;17.30;99.90;;;;;;5032049;28;19917;-66
2022/09/16 10:55:27;;;;;;;;;;;17.60;99.90;;;;;;5051550;28;20306;-66
2022/09/16 10:58:05;;;;;;;;;;;18.00;99.90;;;;;;5054101;28;19991;-66
2022/09/16 11:00:32;;;;;;;;;;;17.20;99.90;;;;;;5024143;28;20110;-66
2022/09/16 11:03:17;;;;;;;;;;;17.00;99.90;;;;;;5033705;28;19920;-66
2022/09/16 11:05:50;;;;;;;;;;;17.30;99.90;;;;;;5034137;28;19975;-66
2022/09/16 11:08:24;;;;;;;;;;;17.50;99.90;;;;;;5035600;28;19936;-66
2022/09/16 11:11:07;;;;;;;;;;;17.30;99.90;;;;;;5046798;28;20318;-67
2022/09/16 11:13:41;;;;;;;;;;;17.90;99.90;;;;;;5037947;28;19971;-66
2022/09/16 11:16:16;;;;;;;;;;;18.50;99.90;;;;;;5033865;28;20024;-66
2022/09/16 11:18:54;;;;;;;;;;;18.40;99.90;;;;;;5050115;28;19913;-66
2022/09/16 11:21:29;;;;;;;;;;;18.10;99.90;;;;;;5016177;28;19921;-68
2022/09/16 11:24:04;;;;;;;;;;;17.50;99.90;;;;;;5038569;28;19966;-65
2022/09/16 11:26:50;;;;;;;;;;;17.20;99.90;;;;;;5027865;28;19974;-65
2022/09/16 11:29:35;;;;;;;;;;;17.00;99.90;;;;;;5030047;28;19967;-65
2022/09/16 11:32:20;;;;;;;;;;;17.10;99.90;;;;;;5033364;28;19964;-65
2022/09/16 11:34:56;;;;;;;;;;;17.00;99.90;;;;;;5034605;28;19920;-65
2022/09/16 11:37:26;;;;;;;;;;;17.00;99.90;;;;;;5032048;28;20245;-65
2022/09/16 11:40:11;;;;;;;;;;;17.20;99.90;;;;;;5033473;28;19948;-65
2022/09/16 11:42:41;;;;;;;;;;;17.10;99.90;;;;;;5033130;28;19913;-65
2022/09/16 11:45:17;;;;;;;;;;;17.30;99.90;;;;;;5033519;28;19952;-66
2022/09/16 11:48:02;;;;;;;;;;;18.00;99.90;;;;;;5031924;28;20446;-65
2022/09/16 11:50:37;;;;;;;;;;;17.90;99.90;;;;;;5033324;28;20019;-65
2022/09/16 11:53:16;;;;;;;;;;;17.40;99.90;;;;;;5029916;28;19921;-66
2022/09/16 11:58:24;;;;;;;;;;;16.60;99.90;;;;;;5059921;28;20286;-65
2022/09/16 12:00:51;;;;;;;;;;;16.60;99.90;;;;;;5044370;28;19913;-65
2022/09/16 12:03:36;;;;;;;;;;;16.80;99.90;;;;;;5048203;28;19996;-65
2022/09/16 12:06:06;;;;;;;;;;;17.10;99.90;;;;;;5040563;28;19916;-65
2022/09/16 12:08:43;;;;;;;;;;;17.10;99.90;;;;;;5028865;28;19932;-65
2022/09/16 12:11:31;;;;;;;;;;;17.20;99.90;;;;;;5015497;28;19914;-65
2022/09/16 12:14:02;;;;;;;;;;;16.90;99.90;;;;;;5034902;28;19920;-65
2022/09/16 12:16:33;;;;;;;;;;;16.90;99.90;;;;;;5037208;28;19925;-65
2022/09/16 12:19:02;;;;;;;;;;;16.80;99.90;;;;;;5037810;28;19921;-65
2022/09/16 12:21:36;;;;;;;;;;;16.50;99.90;;;;;;5042132;28;19936;-65
2022/09/16 12:24:05;;;;;;;;;;;16.90;99.90;;;;;;5031414;28;19940;-66
2022/09/16 12:26:37;;;;;;;;;;;17.30;99.90;;;;;;5031922;28;19917;-66
2022/09/16 12:29:05;;;;;;;;;;;17.60;99.90;;;;;;5038799;28;19920;-66
2022/09/16 12:31:51;;;;;;;;;;;17.40;99.90;;;;;;5033995;28;20418;-65
2022/09/16 12:34:36;;;;;;;;;;;17.30;99.90;;;;;;5031363;28;20331;-65
2022/09/16 12:37:07;;;;;;;;;;;17.70;99.90;;;;;;5020193;28;20300;-65
2022/09/16 12:39:33;;;;;;;;;;;17.90;99.90;;;;;;5025977;28;19955;-66
2022/09/16 12:42:18;;;;;;;;;;;17.80;99.90;;;;;;5024049;28;19910;-65
2022/09/16 12:45:03;;;;;;;;;;;17.50;99.90;;;;;;5027171;28;19948;-66
2022/09/16 12:47:44;;;;;;;;;;;17.20;99.90;;;;;;5028680;28;19909;-65
2022/09/16 12:50:18;;;;;;;;;;;16.50;99.90;;;;;;5018092;28;19918;-65
2022/09/16 12:53:03;;;;;;;;;;;16.30;99.90;;;;;;5024453;28;19909;-65
2022/09/16 12:55:49;;;;;;;;;;;15.80;99.90;;;;;;5023538;28;19910;-65
2022/09/16 12:58:21;;;;;;;;;;;15.50;99.90;;;;;;5029385;28;20016;-65
2022/09/16 13:01:07;;;;;;;;;;;15.20;99.90;;;;;;5041176;28;19916;-65
2022/09/16 13:03:35;;;;;;;;;;;15.20;99.90;;;;;;5049708;28;19910;-66
2022/09/16 13:06:04;;;;;;;;;;;15.20;99.90;;;;;;5049601;28;19955;-65
2022/09/16 13:08:31;;;;;;;;;;;15.20;99.90;;;;;;5029603;28;19972;-65
2022/09/16 13:10:58;;;;;;;;;;;15.20;99.90;;;;;;5016783;28;20292;-65
2022/09/16 13:13:28;;;;;;;;;;;15.30;99.90;;;;;;4998906;28;19909;-66
2022/09/16 13:15:55;;;;;;;;;;;15.40;99.90;;;;;;5016373;28;20407;-65
2022/09/16 13:18:22;;;;;;;;;;;15.70;99.90;;;;;;5017219;28;19914;-65
2022/09/16 13:20:49;;;;;;;;;;;16.00;99.90;;;;;;5016590;28;20387;-65
2022/09/16 13:23:17;;;;;;;;;;;16.50;99.90;;;;;;5016585;28;20360;-65
2022/09/16 13:25:47;;;;;;;;;;;16.50;99.90;;;;;;5016288;28;20390;-65
2022/09/16 13:28:33;;;;;;;;;;;16.10;99.90;;;;;;5016345;28;20383;-65
2022/09/16 13:31:17;;;;;;;;;;;16.10;99.90;;;;;;5016154;28;19909;-65
2022/09/16 13:33:44;;;;;;;;;;;16.00;99.90;;;;;;5018375;28;19975;-65
2022/09/16 13:38:57;;;;;;;;;;;16.50;99.90;;;;;;5070974;28;19919;-65
2022/09/16 13:41:43;;;;;;;;;;;16.70;99.90;;;;;;5070645;28;20003;-65
2022/09/16 13:44:29;;;;;;;;;;;16.60;99.90;;;;;;5070662;28;20279;-65
2022/09/16 13:49:53;;;;;;;;;;;16.90;99.90;;;;;;5070984;28;19913;-66
2022/09/16 13:52:23;;;;;;;;;;;16.80;99.90;;;;;;5071473;28;20039;-65
2022/09/16 13:54:49;;;;;;;;;;;17.10;99.90;;;;;;5070873;28;19913;-66
2022/09/16 13:57:22;;;;;;;;;;;17.10;99.90;;;;;;5071050;28;19909;-66
2022/09/16 14:02:33;;;;;;;;;;;17.50;99.90;;;;;;5070815;28;20306;-65
2022/09/16 14:05:18;;;;;;;;;;;17.40;99.90;;;;;;5071089;28;20393;-66
2022/09/16 14:07:48;;;;;;;;;;;17.60;99.90;;;;;;5071239;28;19947;-65
2022/09/16 14:10:33;;;;;;;;;;;17.70;99.90;;;;;;5070946;28;20003;-66
2022/09/16 14:13:10;;;;;;;;;;;17.40;99.90;;;;;;5070545;28;19915;-66
2022/09/16 14:15:43;;;;;;;;;;;17.00;99.90;;;;;;5070896;28;20438;-66
2022/09/16 14:18:11;;;;;;;;;;;17.00;99.90;;;;;;5070864;28;19959;-65
2022/09/16 14:20:37;;;;;;;;;;;17.20;99.90;;;;;;5070620;28;20293;-65
2022/09/16 14:23:04;;;;;;;;;;;17.50;99.90;;;;;;5070661;28;19909;-65
2022/09/16 14:25:33;;;;;;;;;;;17.50;99.90;;;;;;5071291;28;19909;-65
2022/09/16 14:28:19;;;;;;;;;;;17.40;99.90;;;;;;5070439;28;20383;-66
2022/09/16 14:30:46;;;;;;;;;;;16.90;99.90;;;;;;5070355;28;20383;-65
2022/09/16 14:33:12;;;;;;;;;;;17.10;99.90;;;;;;5070343;28;19909;-66
2022/09/16 14:35:44;;;;;;;;;;;17.00;99.90;;;;;;5070260;28;19978;-66
2022/09/16 14:38:12;;;;;;;;;;;16.90;99.90;;;;;;5070171;28;19915;-65
2022/09/16 14:40:38;;;;;;;;;;;17.00;99.90;;;;;;5070069;28;19913;-65
2022/09/16 14:43:05;;;;;;;;;;;17.00;99.90;;;;;;5071145;28;19913;-64
2022/09/16 14:45:32;;;;;;;;;;;16.80;99.90;;;;;;5050908;28;20368;-65
2022/09/16 14:48:00;;;;;;;;;;;16.50;99.90;;;;;;5062124;28;20398;-65
2022/09/16 14:50:30;;;;;;;;;;;16.30;99.90;;;;;;5069800;28;19909;-65
2022/09/16 14:52:57;;;;;;;;;;;16.20;99.90;;;;;;5065409;28;19917;-64
2022/09/16 14:55:24;;;;;;;;;;;15.90;99.90;;;;;;5068217;28;19983;-65